Time;durP1;ratioP1;P1;durP2;ratioP2;P2;SDS_P1;SDS_P2;PMS_P1;PMS_P2;Temp;Humidity;BMP_temperature;BMP_pressure;BME280_temperature;BME280_humidity;BME280_pressure;Samples;Min_cycle;Max_cycle;Signal;HPM_P1;HPM_P2
2023/09/06 04:02:13;;;;;;;2.40;2.30;;;16.00;99.90;;;;;;5113001;23;20513;-72
2023/09/06 04:04:40;;;;;;;2.83;2.73;;;16.00;99.90;;;;;;4932357;29;20485;-72
2023/09/06 04:07:07;;;;;;;3.00;2.90;;;16.00;99.90;;;;;;4931716;29;20921;-71
2023/09/06 04:09:37;;;;;;;2.43;2.33;;;15.90;99.90;;;;;;4930063;29;21168;-72
2023/09/06 04:12:06;;;;;;;2.60;2.50;;;15.90;99.90;;;;;;4918568;29;20496;-72
2023/09/06 04:14:35;;;;;;;3.17;3.07;;;15.90;99.90;;;;;;4913479;29;20472;-72
2023/09/06 04:17:02;;;;;;;3.07;2.97;;;15.90;99.90;;;;;;4949604;23;21287;-69
2023/09/06 04:19:31;;;;;;;3.57;3.37;;;15.90;99.90;;;;;;4932719;29;20512;-68
2023/09/06 04:21:58;;;;;;;3.77;3.57;;;15.90;99.90;;;;;;4936938;29;20476;-69
2023/09/06 04:24:24;;;;;;;3.33;3.23;;;15.90;99.90;;;;;;4936533;28;20539;-69
2023/09/06 04:26:51;;;;;;;2.60;2.60;;;15.80;99.90;;;;;;4926354;29;20491;-69
2023/09/06 04:29:18;;;;;;;3.33;3.13;;;15.80;99.90;;;;;;4913410;29;20482;-69
2023/09/06 04:31:44;;;;;;;5.60;3.80;;;15.80;99.90;;;;;;4919349;29;20474;-69
2023/09/06 04:34:11;;;;;;;3.00;2.90;;;15.80;99.90;;;;;;4920826;29;20472;-69
2023/09/06 04:36:40;;;;;;;2.60;2.50;;;15.80;99.90;;;;;;4923325;29;20545;-69
2023/09/06 04:39:08;;;;;;;3.97;3.77;;;15.80;99.90;;;;;;4913541;29;20464;-69
2023/09/06 04:41:36;;;;;;;4.47;4.27;;;15.80;99.90;;;;;;4914621;29;20541;-70
2023/09/06 04:44:03;;;;;;;3.40;3.27;;;15.80;99.90;;;;;;4924377;29;20502;-70
2023/09/06 04:46:30;;;;;;;2.87;2.77;;;15.80;99.90;;;;;;4921922;29;21002;-70
2023/09/06 04:48:56;;;;;;;3.23;3.03;;;15.80;99.90;;;;;;4912108;29;20487;-69
2023/09/06 04:51:23;;;;;;;3.33;3.20;;;15.70;99.90;;;;;;4921628;29;20468;-70
2023/09/06 04:53:51;;;;;;;2.87;2.77;;;15.80;99.90;;;;;;4933069;29;20463;-69
2023/09/06 04:56:18;;;;;;;3.00;2.83;;;15.80;99.90;;;;;;4915198;29;20494;-69
2023/09/06 04:58:45;;;;;;;2.83;2.80;;;15.80;99.90;;;;;;4914160;29;20464;-69
2023/09/06 05:01:12;;;;;;;3.53;3.43;;;15.80;99.90;;;;;;4919283;29;20475;-70
2023/09/06 05:03:40;;;;;;;6.00;4.00;;;15.80;99.90;;;;;;4914437;29;20549;-69
2023/09/06 05:06:07;;;;;;;3.80;3.23;;;15.80;99.90;;;;;;4929017;29;21000;-69
2023/09/06 05:08:34;;;;;;;3.30;3.20;;;15.80;99.90;;;;;;4933544;29;20473;-70
2023/09/06 05:11:03;;;;;;;3.37;3.07;;;15.80;99.90;;;;;;4921744;29;20475;-70
2023/09/06 05:13:29;;;;;;;3.23;3.13;;;15.80;99.90;;;;;;4927717;29;20858;-70
2023/09/06 05:16:02;;;;;;;3.50;3.30;;;15.80;99.90;;;;;;4917768;29;20477;-69
2023/09/06 05:18:28;;;;;;;3.70;3.60;;;15.90;99.90;;;;;;4917712;29;20803;-69
2023/09/06 05:20:55;;;;;;;3.13;2.83;;;15.90;99.90;;;;;;4920637;29;20481;-70
2023/09/06 05:23:22;;;;;;;4.30;4.00;;;15.90;99.90;;;;;;4921589;29;20554;-69
2023/09/06 05:25:49;;;;;;;4.13;3.93;;;15.90;99.90;;;;;;4917508;29;20459;-70
2023/09/06 05:28:17;;;;;;;3.90;3.70;;;15.90;99.90;;;;;;4916948;29;20485;-69
2023/09/06 05:30:45;;;;;;;3.23;3.03;;;16.00;99.90;;;;;;4917719;29;20496;-70
2023/09/06 05:33:12;;;;;;;3.37;3.10;;;16.00;99.90;;;;;;4932012;29;20457;-70
2023/09/06 05:35:41;;;;;;;4.47;4.17;;;16.00;99.90;;;;;;4922425;29;20469;-70
2023/09/06 05:38:09;;;;;;;3.30;3.20;;;16.10;99.90;;;;;;4916597;29;20978;-70
2023/09/06 05:40:36;;;;;;;3.90;3.70;;;16.10;99.90;;;;;;4917682;29;20540;-70
2023/09/06 05:43:03;;;;;;;3.20;3.10;;;16.20;99.90;;;;;;4923917;29;20556;-71
2023/09/06 05:45:32;;;;;;;4.10;3.90;;;16.20;99.90;;;;;;4922681;29;20496;-70
2023/09/06 05:47:58;;;;;;;3.97;3.77;;;16.20;99.90;;;;;;4921470;29;20486;-70
2023/09/06 05:50:26;;;;;;;3.93;3.73;;;16.30;99.90;;;;;;4921148;29;20858;-70
2023/09/06 05:52:53;;;;;;;3.07;3.03;;;16.30;99.90;;;;;;4911599;29;20488;-70
2023/09/06 05:55:20;;;;;;;3.87;3.67;;;16.40;99.90;;;;;;4915514;29;20819;-70
2023/09/06 05:57:46;;;;;;;3.80;3.60;;;16.40;99.90;;;;;;4925300;29;20480;-70
2023/09/06 06:00:15;;;;;;;2.40;2.40;;;16.40;99.90;;;;;;4913958;29;20477;-70
2023/09/06 06:02:44;;;;;;;4.03;3.83;;;16.50;99.90;;;;;;4914285;29;20545;-70
2023/09/06 06:05:12;;;;;;;3.50;3.33;;;16.60;99.90;;;;;;4915068;29;20526;-70
2023/09/06 06:07:39;;;;;;;8.60;3.80;;;16.70;99.90;;;;;;4915856;29;21053;-70
2023/09/06 06:10:09;;;;;;;3.50;3.30;;;16.80;99.90;;;;;;4926306;29;20528;-70
2023/09/06 06:12:37;;;;;;;3.40;3.23;;;16.80;99.90;;;;;;4915516;29;20476;-70
2023/09/06 06:15:04;;;;;;;3.43;3.23;;;16.90;99.90;;;;;;4917199;29;20501;-69
2023/09/06 06:17:31;;;;;;;3.97;3.70;;;17.00;99.90;;;;;;4920314;29;20495;-69
2023/09/06 06:19:58;;;;;;;3.07;2.97;;;17.10;99.90;;;;;;4916130;29;20467;-69
2023/09/06 06:22:25;;;;;;;2.73;2.53;;;17.20;99.90;;;;;;4913962;29;20466;-69
2023/09/06 06:24:52;;;;;;;3.70;3.40;;;17.20;99.90;;;;;;4920482;29;20487;-69
2023/09/06 06:27:18;;;;;;;3.43;3.23;;;17.20;99.90;;;;;;4922179;29;20881;-69
2023/09/06 06:29:45;;;;;;;3.17;2.97;;;17.30;99.90;;;;;;4924285;29;20500;-70
2023/09/06 06:32:12;;;;;;;3.13;3.03;;;17.40;99.90;;;;;;4920103;29;20480;-69
2023/09/06 06:34:39;;;;;;;3.60;3.47;;;17.50;99.90;;;;;;4922697;29;20474;-70
2023/09/06 06:37:07;;;;;;;3.50;3.40;;;17.70;99.90;;;;;;4916415;29;20997;-69
2023/09/06 06:39:34;;;;;;;3.60;3.40;;;17.80;99.90;;;;;;4915370;29;20465;-69
2023/09/06 06:42:00;;;;;;;3.53;3.23;;;17.80;99.90;;;;;;4917641;29;20976;-70
2023/09/06 06:44:27;;;;;;;3.53;3.33;;;17.90;99.90;;;;;;4910977;29;20469;-70
2023/09/06 06:46:54;;;;;;;3.13;3.10;;;17.90;99.90;;;;;;4912880;29;20485;-71
2023/09/06 06:49:20;;;;;;;3.40;3.20;;;17.90;99.90;;;;;;4917684;29;20480;-70
2023/09/06 06:51:47;;;;;;;3.13;2.90;;;18.00;99.90;;;;;;4917588;29;20866;-69
2023/09/06 06:54:15;;;;;;;2.70;2.60;;;18.00;99.90;;;;;;4924397;29;20488;-71
2023/09/06 06:56:42;;;;;;;2.70;2.60;;;18.10;99.90;;;;;;4914725;29;20916;-70
2023/09/06 06:59:09;;;;;;;2.83;2.73;;;18.20;99.90;;;;;;4913891;29;20473;-70
2023/09/06 07:01:36;;;;;;;2.90;2.90;;;18.40;99.90;;;;;;4918476;29;20477;-69
2023/09/06 07:04:04;;;;;;;3.10;2.83;;;18.40;99.90;;;;;;4917818;29;20473;-70
2023/09/06 07:06:31;;;;;;;2.50;2.40;;;18.50;99.90;;;;;;4914103;29;20495;-70
2023/09/06 07:08:59;;;;;;;2.97;2.77;;;18.60;99.90;;;;;;4913316;29;20474;-69
2023/09/06 07:11:27;;;;;;;3.20;3.00;;;18.70;99.90;;;;;;4909872;29;20502;-69
2023/09/06 07:13:53;;;;;;;2.83;2.67;;;18.70;99.90;;;;;;4907611;29;20471;-72
2023/09/06 07:16:21;;;;;;;3.03;2.83;;;18.80;99.90;;;;;;4915017;29;20502;-70
2023/09/06 07:18:48;;;;;;;2.10;2.10;;;18.90;99.90;;;;;;4923653;29;20462;-70
2023/09/06 07:21:15;;;;;;;2.47;2.40;;;19.00;99.90;;;;;;4914861;29;20468;-71
2023/09/06 07:23:42;;;;;;;3.07;2.97;;;19.10;99.90;;;;;;4923192;29;20465;-70
2023/09/06 07:26:09;;;;;;;2.37;2.37;;;19.20;99.90;;;;;;4914875;29;21034;-71
2023/09/06 07:28:40;;;;;;;2.10;2.10;;;19.30;99.90;;;;;;4931362;29;20542;-70
2023/09/06 07:31:07;;;;;;;2.13;2.03;;;19.40;99.90;;;;;;4916477;29;20935;-69
2023/09/06 07:33:33;;;;;;;2.07;2.07;;;19.50;99.90;;;;;;4923130;29;20484;-71
2023/09/06 07:36:00;;;;;;;2.47;2.47;;;19.70;99.90;;;;;;4922348;29;20465;-71
2023/09/06 07:38:27;;;;;;;2.07;2.00;;;19.80;99.90;;;;;;4914114;29;20493;-71
2023/09/06 07:40:58;;;;;;;2.10;2.10;;;20.00;99.90;;;;;;4915439;29;20464;-71
2023/09/06 07:43:25;;;;;;;2.57;2.47;;;20.10;99.90;;;;;;4915040;29;20484;-71
2023/09/06 07:45:53;;;;;;;2.67;2.47;;;20.10;99.90;;;;;;4914670;29;20469;-71
2023/09/06 07:48:20;;;;;;;2.13;2.13;;;20.20;99.90;;;;;;4919190;29;20485;-71
2023/09/06 07:50:48;;;;;;;2.33;2.13;;;20.30;99.90;;;;;;4914911;29;20496;-70
2023/09/06 07:53:14;;;;;;;2.73;2.63;;;20.40;99.90;;;;;;4919588;29;20481;-70
2023/09/06 07:55:44;;;;;;;1.67;1.67;;;20.70;99.90;;;;;;4923874;29;20477;-71
2023/09/06 07:58:11;;;;;;;1.53;1.53;;;20.90;99.90;;;;;;4914794;29;20966;-71
2023/09/06 08:00:38;;;;;;;2.07;2.07;;;21.00;99.90;;;;;;4914578;29;20495;-70
2023/09/06 08:03:06;;;;;;;2.40;2.40;;;21.00;99.90;;;;;;4913962;29;20482;-71
2023/09/06 08:05:35;;;;;;;1.83;1.83;;;21.10;99.90;;;;;;4924102;29;20465;-70
2023/09/06 08:08:02;;;;;;;1.77;1.77;;;21.20;99.90;;;;;;4921264;29;20857;-70
2023/09/06 08:10:28;;;;;;;1.80;1.70;;;21.30;99.90;;;;;;4914306;29;20590;-71
2023/09/06 08:12:55;;;;;;;1.73;1.73;;;21.30;99.90;;;;;;4917538;29;20967;-70
2023/09/06 08:15:22;;;;;;;2.10;2.00;;;21.40;99.90;;;;;;4914951;29;20487;-70
2023/09/06 08:17:49;;;;;;;2.13;2.03;;;21.50;99.90;;;;;;4914515;29;20489;-70
2023/09/06 08:20:18;;;;;;;1.90;1.90;;;21.70;99.90;;;;;;4914382;29;20466;-69
2023/09/06 08:22:45;;;;;;;2.07;2.07;;;22.00;99.90;;;;;;4915255;29;20848;-70
2023/09/06 08:25:13;;;;;;;1.40;1.40;;;22.30;99.90;;;;;;4925932;29;20521;-70
2023/09/06 08:27:39;;;;;;;2.10;2.00;;;22.40;99.90;;;;;;4923649;29;20495;-69
2023/09/06 08:30:10;;;;;;;1.20;1.20;;;22.50;99.90;;;;;;4919426;29;21023;-70
2023/09/06 08:32:37;;;;;;;2.10;2.00;;;22.50;99.90;;;;;;4911847;29;20479;-71
2023/09/06 08:35:04;;;;;;;2.07;2.07;;;22.60;99.90;;;;;;4914473;29;20849;-71
2023/09/06 08:37:33;;;;;;;2.10;2.10;;;22.90;99.90;;;;;;4912644;29;21252;-70
2023/09/06 08:40:00;;;;;;;1.60;1.50;;;23.00;99.90;;;;;;4917691;29;20467;-69
2023/09/06 08:42:33;;;;;;;1.83;1.83;;;23.20;99.90;;;;;;4907566;29;21207;-71
2023/09/06 08:45:00;;;;;;;2.10;2.03;;;23.40;99.90;;;;;;4922988;29;20529;-71
2023/09/06 08:47:28;;;;;;;1.97;1.87;;;23.50;99.90;;;;;;4917650;29;20486;-71
2023/09/06 08:49:55;;;;;;;1.63;1.63;;;23.50;99.90;;;;;;4917942;29;20501;-70
2023/09/06 08:52:22;;;;;;;1.93;1.93;;;23.50;99.90;;;;;;4915721;29;20478;-71
2023/09/06 08:54:51;;;;;;;1.77;1.70;;;23.50;99.90;;;;;;4921617;29;20465;-70
2023/09/06 08:57:18;;;;;;;1.90;1.80;;;23.50;99.90;;;;;;4916810;29;21097;-70
2023/09/06 08:59:46;;;;;;;1.93;1.93;;;23.70;99.90;;;;;;4917567;29;20466;-71
2023/09/06 09:02:14;;;;;;;2.40;2.30;;;23.80;99.90;;;;;;4912919;29;20529;-71
2023/09/06 09:04:42;;;;;;;1.47;1.47;;;23.80;99.90;;;;;;4928120;29;20473;-71
2023/09/06 09:07:10;;;;;;;1.60;1.50;;;23.90;99.90;;;;;;4917126;29;20493;-71
2023/09/06 09:09:58;;;;;;;1.53;1.53;;;24.10;99.90;;;;;;4925764;29;20592;-69
2023/09/06 09:12:26;;;;;;;1.40;1.40;;;24.30;99.90;;;;;;4912393;29;20922;-69
2023/09/06 09:14:54;;;;;;;1.30;1.30;;;24.40;99.90;;;;;;4919493;29;20460;-70
2023/09/06 09:17:21;;;;;;;1.50;1.50;;;24.60;99.90;;;;;;4915806;29;20494;-70
2023/09/06 09:19:50;;;;;;;1.27;1.27;;;24.80;99.90;;;;;;4923771;29;20632;-70
2023/09/06 09:22:21;;;;;;;1.37;1.37;;;25.00;99.90;;;;;;4920814;29;20556;-70
2023/09/06 09:24:48;;;;;;;1.30;1.30;;;25.10;99.90;;;;;;4923447;29;20473;-69
2023/09/06 09:27:19;;;;;;;1.47;1.37;;;25.20;99.90;;;;;;4917719;29;20492;-70
2023/09/06 09:29:47;;;;;;;1.97;1.90;;;25.30;99.90;;;;;;4917207;29;20481;-69
2023/09/06 09:32:15;;;;;;;1.50;1.50;;;25.40;99.90;;;;;;4919537;29;20487;-70
2023/09/06 09:34:42;;;;;;;1.20;1.20;;;25.40;99.90;;;;;;4917883;29;20840;-70
2023/09/06 09:37:09;;;;;;;1.40;1.30;;;25.30;99.90;;;;;;4916889;29;20494;-70
2023/09/06 09:39:37;;;;;;;1.27;1.27;;;25.40;99.90;;;;;;4920116;29;20846;-70
2023/09/06 09:42:04;;;;;;;1.00;1.00;;;25.60;99.90;;;;;;4914499;29;20479;-70
2023/09/06 09:44:33;;;;;;;0.93;0.93;;;25.60;99.90;;;;;;4916657;29;20543;-70
2023/09/06 09:47:10;;;;;;;1.50;1.50;;;25.80;99.90;;;;;;4927197;29;20598;-71
2023/09/06 09:49:37;;;;;;;1.30;1.30;;;25.90;99.90;;;;;;4930774;29;20498;-70
2023/09/06 09:52:05;;;;;;;1.00;1.00;;;26.00;99.90;;;;;;4916645;29;20533;-70
2023/09/06 09:54:34;;;;;;;1.20;1.20;;;25.90;99.90;;;;;;4909270;29;20574;-70
2023/09/06 09:57:05;;;;;;;0.83;0.83;;;25.90;99.90;;;;;;4915264;29;21055;-70
2023/09/06 09:59:33;;;;;;;1.50;1.50;;;25.80;99.90;;;;;;4912933;29;20505;-70
2023/09/06 10:02:01;;;;;;;1.50;1.50;;;25.70;99.90;;;;;;4915193;29;20562;-70
2023/09/06 10:04:30;;;;;;;1.53;1.53;;;25.70;99.90;;;;;;4913268;29;20466;-70
2023/09/06 10:06:57;;;;;;;0.73;0.73;;;25.80;99.90;;;;;;4906193;29;20985;-70
2023/09/06 10:09:24;;;;;;;1.40;1.40;;;25.80;99.90;;;;;;4912515;29;20481;-76
2023/09/06 10:11:51;;;;;;;1.40;1.40;;;25.90;99.90;;;;;;4912690;29;21020;-71
2023/09/06 10:14:22;;;;;;;1.60;1.60;;;25.90;99.90;;;;;;4906489;29;20564;-71
2023/09/06 10:16:52;;;;;;;1.43;1.43;;;26.00;99.90;;;;;;4908656;29;20481;-70
2023/09/06 10:19:19;;;;;;;1.00;1.00;;;26.20;99.90;;;;;;4934065;23;20505;-71
2023/09/06 10:21:48;;;;;;;1.80;1.70;;;26.30;99.90;;;;;;4932657;29;20473;-70
2023/09/06 10:24:18;;;;;;;1.00;1.00;;;26.50;99.90;;;;;;4923717;29;20474;-71
2023/09/06 10:26:47;;;;;;;1.07;1.07;;;26.60;99.90;;;;;;4935912;29;20461;-71
2023/09/06 10:29:19;;;;;;;1.30;1.30;;;26.50;99.90;;;;;;4924745;29;20493;-70
2023/09/06 10:31:51;;;;;;;1.40;1.40;;;26.60;99.90;;;;;;4917036;29;20561;-70
2023/09/06 10:34:18;;;;;;;1.13;1.13;;;26.80;99.90;;;;;;4916937;29;20498;-71
2023/09/06 10:36:53;;;;;;;1.10;1.10;;;26.80;99.90;;;;;;4914540;29;20482;-71
2023/09/06 10:39:22;;;;;;;1.10;1.10;;;26.70;99.90;;;;;;4915941;29;20494;-70
2023/09/06 10:42:15;;;;;;;1.33;1.33;;;26.90;99.90;;;;;;4935826;29;20513;-71
2023/09/06 10:45:14;;;;;;;1.10;1.10;;;26.90;99.90;;;;;;4916057;29;20505;-70
2023/09/06 10:47:42;;;;;;;0.83;0.83;;;26.90;99.90;;;;;;4923293;29;20937;-71
2023/09/06 10:50:13;;;;;;;1.20;0.90;;;27.20;99.90;;;;;;4930439;29;20482;-70
2023/09/06 10:52:42;;;;;;;0.90;0.90;;;27.30;99.90;;;;;;4933401;29;20490;-70
2023/09/06 10:55:14;;;;;;;0.73;0.73;;;27.40;99.90;;;;;;4916409;29;20544;-70
2023/09/06 10:57:52;;;;;;;1.43;1.43;;;27.50;99.90;;;;;;4917616;29;20467;-70
2023/09/06 11:00:21;;;;;;;0.70;0.70;;;27.50;99.90;;;;;;4922997;29;20496;-70
2023/09/06 11:03:20;;;;;;;1.30;1.20;;;27.50;99.90;;;;;;4919413;29;20572;-71
2023/09/06 11:05:58;;;;;;;0.93;0.93;;;27.60;99.90;;;;;;4915025;29;20475;-71
2023/09/06 11:08:30;;;;;;;1.00;1.00;;;27.60;99.90;;;;;;4905761;29;20491;-71
2023/09/06 11:11:09;;;;;;;1.00;1.00;;;27.60;99.90;;;;;;4911544;29;20478;-70
2023/09/06 11:13:37;;;;;;;0.77;0.77;;;27.50;99.90;;;;;;4909543;29;20467;-71
2023/09/06 11:16:05;;;;;;;0.90;0.90;;;27.50;99.90;;;;;;4910039;29;20472;-70
2023/09/06 11:18:43;;;;;;;0.67;0.67;;;27.50;99.90;;;;;;4916735;29;20501;-70
2023/09/06 11:21:10;;;;;;;0.80;0.80;;;27.70;99.90;;;;;;4916768;29;20459;-70
2023/09/06 11:23:44;;;;;;;1.17;1.17;;;27.80;99.90;;;;;;4915660;29;20485;-71
2023/09/06 11:26:12;;;;;;;0.97;0.97;;;27.80;99.90;;;;;;4914456;29;20469;-71
2023/09/06 11:28:40;;;;;;;0.67;0.67;;;27.70;99.90;;;;;;4918546;29;20497;-71
2023/09/06 11:31:20;;;;;;;0.80;0.80;;;27.70;99.90;;;;;;4915248;29;20499;-72
2023/09/06 11:33:53;;;;;;;0.77;0.77;;;27.70;99.90;;;;;;4914767;29;20458;-72
2023/09/06 11:36:21;;;;;;;1.03;1.03;;;27.60;99.90;;;;;;4928528;29;20838;-70
2023/09/06 11:38:48;;;;;;;0.67;0.67;;;27.60;99.90;;;;;;4921410;29;21033;-70
2023/09/06 11:41:16;;;;;;;1.37;1.37;;;27.70;99.90;;;;;;4916068;29;20945;-71
2023/09/06 11:43:46;;;;;;;0.83;0.83;;;27.80;99.90;;;;;;4910130;29;20874;-71
2023/09/06 11:46:14;;;;;;;1.17;1.17;;;27.80;99.90;;;;;;4910040;29;20530;-71
2023/09/06 11:48:41;;;;;;;1.10;1.10;;;28.00;99.90;;;;;;4914329;29;20489;-70
2023/09/06 11:51:12;;;;;;;0.90;0.90;;;28.20;99.90;;;;;;4916257;29;20526;-70
2023/09/06 11:53:41;;;;;;;0.70;0.70;;;28.20;99.90;;;;;;4923446;29;20465;-71
2023/09/06 11:56:11;;;;;;;0.83;0.83;;;28.00;99.90;;;;;;4914559;29;20530;-70
2023/09/06 11:58:45;;;;;;;1.00;1.00;;;28.20;99.90;;;;;;4933064;29;20888;-70
2023/09/06 12:01:12;;;;;;;0.83;0.83;;;28.20;99.90;;;;;;4919705;29;20551;-70
2023/09/06 12:03:46;;;;;;;0.70;0.70;;;28.10;99.90;;;;;;4914783;29;20475;-70
2023/09/06 12:06:16;;;;;;;0.90;0.90;;;28.30;99.90;;;;;;4911847;29;20471;-70
2023/09/06 12:08:43;;;;;;;0.93;0.93;;;28.40;99.90;;;;;;4916213;29;20482;-70
2023/09/06 12:11:15;;;;;;;0.77;0.77;;;28.50;99.90;;;;;;4911354;29;20517;-69
2023/09/06 12:13:42;;;;;;;0.83;0.83;;;28.60;99.90;;;;;;4909559;29;20557;-69
2023/09/06 12:16:11;;;;;;;0.83;0.83;;;28.50;99.90;;;;;;4927766;29;20465;-70
2023/09/06 12:18:38;;;;;;;0.90;0.90;;;28.50;99.90;;;;;;4930688;29;20482;-70
2023/09/06 12:21:05;;;;;;;1.23;1.00;;;28.50;99.90;;;;;;4927289;29;20494;-70
2023/09/06 12:23:35;;;;;;;0.90;0.90;;;28.50;99.90;;;;;;4912705;29;20803;-70
2023/09/06 12:26:03;;;;;;;1.00;1.00;;;28.40;99.90;;;;;;4914877;29;20570;-70
2023/09/06 12:28:32;;;;;;;2.40;0.93;;;28.50;99.90;;;;;;4914698;29;20473;-71
2023/09/06 12:31:03;;;;;;;2.30;0.80;;;28.50;99.90;;;;;;4912709;29;20506;-71
2023/09/06 12:33:30;;;;;;;0.90;0.90;;;28.50;99.90;;;;;;4910895;29;20470;-71
2023/09/06 12:36:00;;;;;;;0.70;0.70;;;28.40;99.90;;;;;;4914282;29;21001;-70
2023/09/06 12:38:28;;;;;;;0.90;0.90;;;28.30;99.90;;;;;;4914269;29;20957;-71
2023/09/06 12:40:56;;;;;;;1.20;1.20;;;28.40;99.90;;;;;;4922026;29;20984;-70
2023/09/06 12:43:24;;;;;;;0.80;0.80;;;28.50;99.90;;;;;;4922253;29;20478;-70
2023/09/06 12:45:53;;;;;;;1.30;1.30;;;28.30;99.90;;;;;;4917986;29;20550;-70
2023/09/06 12:48:21;;;;;;;1.80;1.10;;;28.20;99.90;;;;;;4930032;29;20460;-69
2023/09/06 12:50:48;;;;;;;0.67;0.67;;;28.20;99.90;;;;;;4909255;29;20466;-70
2023/09/06 12:53:16;;;;;;;1.00;1.00;;;28.40;99.90;;;;;;4913328;29;20993;-69
2023/09/06 12:55:42;;;;;;;0.97;0.97;;;28.40;99.90;;;;;;4922837;29;20510;-70
2023/09/06 12:58:11;;;;;;;1.33;1.33;;;28.30;99.90;;;;;;4914724;29;20514;-70
2023/09/06 13:00:37;;;;;;;1.03;1.03;;;28.40;99.90;;;;;;4914605;29;20477;-70
2023/09/06 13:03:04;;;;;;;0.90;0.90;;;28.50;99.90;;;;;;4913128;29;20470;-70
2023/09/06 13:05:31;;;;;;;0.73;0.73;;;28.70;99.90;;;;;;4910967;29;20501;-70
2023/09/06 13:07:59;;;;;;;1.13;1.13;;;28.80;99.90;;;;;;4914437;29;20489;-70
2023/09/06 13:10:27;;;;;;;0.90;0.90;;;29.00;99.90;;;;;;4914290;29;20487;-74
2023/09/06 13:12:54;;;;;;;1.10;1.10;;;28.90;99.90;;;;;;4914923;29;20819;-75
2023/09/06 13:15:22;;;;;;;0.90;0.90;;;28.70;99.90;;;;;;4911760;29;20997;-72
2023/09/06 13:17:49;;;;;;;0.90;0.77;;;28.80;99.90;;;;;;4908836;29;20494;-70
2023/09/06 13:20:16;;;;;;;0.90;0.90;;;28.80;99.90;;;;;;4913052;29;20498;-71
2023/09/06 13:22:43;;;;;;;1.20;1.20;;;28.80;99.90;;;;;;4914689;29;20477;-71
2023/09/06 13:25:11;;;;;;;0.87;0.87;;;28.80;99.90;;;;;;4919678;29;20917;-71
2023/09/06 13:27:38;;;;;;;1.10;1.10;;;29.00;99.90;;;;;;4914860;29;20569;-71
2023/09/06 13:30:06;;;;;;;1.00;1.00;;;28.90;99.90;;;;;;4919982;29;20540;-71
2023/09/06 13:32:34;;;;;;;0.90;0.90;;;28.80;99.90;;;;;;4919667;29;20497;-71
2023/09/06 13:35:01;;;;;;;0.90;0.90;;;28.70;99.90;;;;;;4914571;29;20475;-71
2023/09/06 13:37:27;;;;;;;0.70;0.70;;;28.70;99.90;;;;;;4917962;29;20557;-71
2023/09/06 13:39:54;;;;;;;0.73;0.73;;;28.80;99.90;;;;;;4917772;29;20486;-71
2023/09/06 13:42:23;;;;;;;0.70;0.70;;;28.80;99.90;;;;;;4916507;29;20803;-71
2023/09/06 13:44:49;;;;;;;1.00;1.00;;;28.80;99.90;;;;;;4930359;29;20466;-71
2023/09/06 13:47:17;;;;;;;0.80;0.80;;;28.80;99.90;;;;;;4929174;29;20466;-73
2023/09/06 13:49:45;;;;;;;0.70;0.70;;;28.90;99.90;;;;;;4936513;29;20478;-71
2023/09/06 13:52:12;;;;;;;1.00;1.00;;;29.00;99.90;;;;;;4912526;29;21009;-71
2023/09/06 13:54:38;;;;;;;0.50;0.50;;;29.00;99.90;;;;;;4915173;29;20475;-71
2023/09/06 13:57:07;;;;;;;0.60;0.60;;;28.90;99.90;;;;;;4925592;29;20808;-71
2023/09/06 13:59:33;;;;;;;0.77;0.77;;;29.00;99.90;;;;;;4917058;29;20976;-71
2023/09/06 14:02:00;;;;;;;0.93;0.93;;;29.00;99.90;;;;;;4910270;29;20486;-71
2023/09/06 14:04:27;;;;;;;0.67;0.67;;;29.00;99.90;;;;;;4917023;29;20830;-71
2023/09/06 14:06:55;;;;;;;0.60;0.60;;;29.00;99.90;;;;;;4925952;29;20492;-72
2023/09/06 14:09:22;;;;;;;0.70;0.70;;;29.00;99.90;;;;;;4911808;29;20498;-71
2023/09/06 14:11:49;;;;;;;0.90;0.90;;;29.00;99.90;;;;;;4916143;29;20572;-71
2023/09/06 14:14:16;;;;;;;0.63;0.63;;;29.00;99.90;;;;;;4917265;29;20470;-71
2023/09/06 14:16:43;;;;;;;0.97;0.97;;;29.10;99.90;;;;;;4922027;29;20986;-71
2023/09/06 14:19:11;;;;;;;1.00;1.00;;;29.00;99.90;;;;;;4914995;29;20500;-73
2023/09/06 14:21:41;;;;;;;0.80;0.80;;;28.90;99.90;;;;;;4908365;29;20474;-70
2023/09/06 14:24:09;;;;;;;0.90;0.90;;;28.80;99.90;;;;;;4916480;29;20459;-70
2023/09/06 14:26:37;;;;;;;1.23;1.23;;;28.90;99.90;;;;;;4917031;29;20817;-70
2023/09/06 14:29:04;;;;;;;1.07;0.70;;;29.00;99.90;;;;;;4915351;29;20573;-70
2023/09/06 14:31:30;;;;;;;0.70;0.70;;;28.90;99.90;;;;;;4923197;29;20481;-70
2023/09/06 14:33:57;;;;;;;0.70;0.70;;;28.90;99.90;;;;;;4917721;29;20475;-70
2023/09/06 14:36:24;;;;;;;0.60;0.60;;;28.80;99.90;;;;;;4916112;29;20478;-70
2023/09/06 14:38:54;;;;;;;0.60;0.60;;;28.90;99.90;;;;;;4919334;29;20544;-70
2023/09/06 14:41:23;;;;;;;0.97;0.97;;;28.90;99.90;;;;;;4906812;29;20859;-70
2023/09/06 14:43:50;;;;;;;1.33;1.33;;;28.90;99.90;;;;;;4906133;29;20586;-70
2023/09/06 14:46:17;;;;;;;0.70;0.70;;;28.80;99.90;;;;;;4912476;29;20474;-70
2023/09/06 14:48:44;;;;;;;1.10;1.10;;;28.80;99.90;;;;;;4930337;29;20486;-71
2023/09/06 14:51:11;;;;;;;0.90;0.90;;;28.80;99.90;;;;;;4915973;29;20471;-70
2023/09/06 14:53:37;;;;;;;0.90;0.90;;;28.80;99.90;;;;;;4913725;29;20502;-71
2023/09/06 14:56:05;;;;;;;1.00;1.00;;;28.90;99.90;;;;;;4913068;29;20464;-71
2023/09/06 14:58:33;;;;;;;1.17;1.17;;;28.80;99.90;;;;;;4907492;29;20581;-71
2023/09/06 15:01:00;;;;;;;1.10;1.10;;;28.80;99.90;;;;;;4917734;29;20465;-70
2023/09/06 15:03:27;;;;;;;1.10;1.10;;;28.90;99.90;;;;;;4932624;29;20470;-70
2023/09/06 15:05:54;;;;;;;0.83;0.83;;;28.80;99.90;;;;;;4921450;29;20502;-70
2023/09/06 15:08:21;;;;;;;1.00;1.00;;;28.80;99.90;;;;;;4915621;29;20984;-71
2023/09/06 15:10:47;;;;;;;0.73;0.73;;;28.80;99.90;;;;;;4913731;29;20482;-70
2023/09/06 15:13:14;;;;;;;1.10;1.10;;;28.80;99.90;;;;;;4912921;29;20497;-70
2023/09/06 15:15:44;;;;;;;1.00;1.00;;;28.90;99.90;;;;;;4912399;29;20540;-71
2023/09/06 15:18:11;;;;;;;1.07;1.07;;;28.90;99.90;;;;;;4915497;29;20498;-70
2023/09/06 15:20:38;;;;;;;0.80;0.80;;;28.80;99.90;;;;;;4914535;29;20458;-70
2023/09/06 15:23:04;;;;;;;0.80;0.80;;;28.70;99.90;;;;;;4914884;29;20945;-70
2023/09/06 15:25:33;;;;;;;0.90;0.90;;;28.70;99.90;;;;;;4914562;29;20489;-70
2023/09/06 15:27:59;;;;;;;0.80;0.80;;;28.70;99.90;;;;;;4915082;29;20474;-70
2023/09/06 15:30:26;;;;;;;0.60;0.60;;;28.80;99.90;;;;;;4909967;29;20491;-70
2023/09/06 15:32:54;;;;;;;0.80;0.80;;;28.90;99.90;;;;;;4915047;29;21025;-71
2023/09/06 15:35:26;;;;;;;1.00;1.00;;;28.90;99.90;;;;;;4918654;29;21001;-71
2023/09/06 15:37:57;;;;;;;1.17;1.17;;;28.90;99.90;;;;;;4918596;29;20474;-70
2023/09/06 15:40:25;;;;;;;1.00;1.00;;;28.80;99.90;;;;;;4921952;29;20560;-71
2023/09/06 15:42:52;;;;;;;1.10;1.10;;;28.90;99.90;;;;;;4912045;29;20550;-71
2023/09/06 15:45:19;;;;;;;0.87;0.87;;;28.80;99.90;;;;;;4918666;29;20466;-71
2023/09/06 15:47:47;;;;;;;0.70;0.70;;;28.70;99.90;;;;;;4933593;29;20493;-71
2023/09/06 15:50:16;;;;;;;0.90;0.90;;;28.70;99.90;;;;;;4921605;29;20486;-71
2023/09/06 15:52:45;;;;;;;0.93;0.93;;;28.80;99.90;;;;;;4914377;29;20491;-71
2023/09/06 15:55:12;;;;;;;0.83;0.83;;;28.80;99.90;;;;;;4920289;29;20546;-71
2023/09/06 15:57:39;;;;;;;0.80;0.80;;;28.70;99.90;;;;;;4917414;29;20562;-71
2023/09/06 16:00:09;;;;;;;1.23;1.23;;;28.70;99.90;;;;;;4904802;29;20490;-70
2023/09/06 16:02:37;;;;;;;1.30;1.30;;;28.80;99.90;;;;;;4916239;29;20550;-70
2023/09/06 16:05:06;;;;;;;1.27;1.27;;;28.70;99.90;;;;;;4934021;29;20540;-70
2023/09/06 16:07:34;;;;;;;1.10;1.10;;;28.60;99.90;;;;;;4914661;29;20498;-70
2023/09/06 16:10:01;;;;;;;0.90;0.90;;;28.50;99.90;;;;;;4918759;29;20863;-70
2023/09/06 16:12:29;;;;;;;1.43;1.43;;;28.50;99.90;;;;;;4910384;29;20486;-71
2023/09/06 16:14:56;;;;;;;1.10;1.10;;;28.50;99.90;;;;;;4908219;29;20486;-70
2023/09/06 16:17:23;;;;;;;1.20;1.20;;;28.50;99.90;;;;;;4922997;29;20463;-70
2023/09/06 16:19:50;;;;;;;2.30;1.40;;;28.40;99.90;;;;;;4912597;29;20513;-70
2023/09/06 16:22:16;;;;;;;1.33;1.33;;;28.40;99.90;;;;;;4920177;29;20473;-70
2023/09/06 16:24:44;;;;;;;1.43;1.43;;;28.30;99.90;;;;;;4922684;29;20466;-70
2023/09/06 16:27:11;;;;;;;1.63;1.53;;;28.30;99.90;;;;;;4913558;29;20470;-70
2023/09/06 16:29:38;;;;;;;1.40;1.40;;;28.20;99.90;;;;;;4922007;29;20482;-70
2023/09/06 16:32:05;;;;;;;1.60;1.50;;;28.20;99.90;;;;;;4913292;29;20865;-70
2023/09/06 16:34:32;;;;;;;1.53;1.53;;;28.10;99.90;;;;;;4918051;29;20490;-71
2023/09/06 16:36:58;;;;;;;1.00;1.00;;;28.10;99.90;;;;;;4922004;29;20471;-71
2023/09/06 16:39:25;;;;;;;1.30;1.30;;;28.10;99.90;;;;;;4917826;29;20469;-72
2023/09/06 16:41:53;;;;;;;0.90;0.90;;;28.00;99.90;;;;;;4917052;29;20229;-71
2023/09/06 16:44:22;;;;;;;0.87;0.87;;;28.00;99.90;;;;;;4923733;29;20466;-71
2023/09/06 16:46:49;;;;;;;1.37;1.37;;;27.90;99.90;;;;;;4922977;29;20821;-71
2023/09/06 16:49:15;;;;;;;1.20;1.20;;;27.80;99.90;;;;;;4914702;29;20483;-71
2023/09/06 16:51:43;;;;;;;1.10;1.10;;;27.80;99.90;;;;;;4916611;29;20482;-71
2023/09/06 16:54:10;;;;;;;1.20;1.20;;;27.70;99.90;;;;;;4907930;29;20581;-71